sensor_id;sensor_type;location;lat;lon;timestamp;temperature;humidity
21481;DHT22;10902;48.158;8.634;2024-03-07T00:02:04;3.70;99.90
21481;DHT22;10902;48.158;8.634;2024-03-07T00:04:49;3.60;99.90
21481;DHT22;10902;48.158;8.634;2024-03-07T00:07:36;3.60;99.90
21481;DHT22;10902;48.158;8.634;2024-03-07T00:10:22;3.70;99.90
21481;DHT22;10902;48.158;8.634;2024-03-07T00:13:08;3.90;99.90
21481;DHT22;10902;48.158;8.634;2024-03-07T00:15:54;4.10;99.90
21481;DHT22;10902;48.158;8.634;2024-03-07T00:18:39;4.10;99.90
21481;DHT22;10902;48.158;8.634;2024-03-07T00:21:26;4.10;99.90
21481;DHT22;10902;48.158;8.634;2024-03-07T00:24:11;4.20;99.90
21481;DHT22;10902;48.158;8.634;2024-03-07T00:26:59;4.20;99.90
21481;DHT22;10902;48.158;8.634;2024-03-07T00:29:44;4.20;99.90
21481;DHT22;10902;48.158;8.634;2024-03-07T00:32:38;4.20;99.90
21481;DHT22;10902;48.158;8.634;2024-03-07T00:35:24;4.30;99.90
21481;DHT22;10902;48.158;8.634;2024-03-07T00:38:10;4.30;99.90
21481;DHT22;10902;48.158;8.634;2024-03-07T00:40:55;4.30;99.90
21481;DHT22;10902;48.158;8.634;2024-03-07T00:43:41;4.30;99.90
21481;DHT22;10902;48.158;8.634;2024-03-07T00:46:27;4.30;99.90
21481;DHT22;10902;48.158;8.634;2024-03-07T00:49:12;4.30;99.90
21481;DHT22;10902;48.158;8.634;2024-03-07T00:51:58;4.30;99.90
21481;DHT22;10902;48.158;8.634;2024-03-07T00:54:45;4.30;99.90
21481;DHT22;10902;48.158;8.634;2024-03-07T00:57:30;4.40;99.90
21481;DHT22;10902;48.158;8.634;2024-03-07T01:00:16;4.30;99.90
21481;DHT22;10902;48.158;8.634;2024-03-07T01:06:47;4.40;99.90
21481;DHT22;10902;48.158;8.634;2024-03-07T01:09:33;4.40;99.90
21481;DHT22;10902;48.158;8.634;2024-03-07T01:12:20;4.40;99.90
21481;DHT22;10902;48.158;8.634;2024-03-07T01:15:09;4.40;99.90
21481;DHT22;10902;48.158;8.634;2024-03-07T01:17:56;4.40;99.90
21481;DHT22;10902;48.158;8.634;2024-03-07T01:20:42;4.40;99.90
21481;DHT22;10902;48.158;8.634;2024-03-07T01:23:28;4.30;99.90
21481;DHT22;10902;48.158;8.634;2024-03-07T01:26:14;4.20;99.90
21481;DHT22;10902;48.158;8.634;2024-03-07T01:28:59;4.20;99.90
21481;DHT22;10902;48.158;8.634;2024-03-07T01:31:45;4.10;99.90
21481;DHT22;10902;48.158;8.634;2024-03-07T01:34:31;4.10;99.90
21481;DHT22;10902;48.158;8.634;2024-03-07T01:37:16;4.10;99.90
21481;DHT22;10902;48.158;8.634;2024-03-07T01:40:03;4.20;99.90
21481;DHT22;10902;48.158;8.634;2024-03-07T01:42:50;4.20;99.90
21481;DHT22;10902;48.158;8.634;2024-03-07T01:45:36;4.20;99.90
21481;DHT22;10902;48.158;8.634;2024-03-07T01:48:26;4.20;99.90
21481;DHT22;10902;48.158;8.634;2024-03-07T01:51:14;4.30;99.90
21481;DHT22;10902;48.158;8.634;2024-03-07T01:54:00;4.30;99.90
21481;DHT22;10902;48.158;8.634;2024-03-07T01:56:47;4.30;99.90
21481;DHT22;10902;48.158;8.634;2024-03-07T01:59:33;4.30;99.90
21481;DHT22;10902;48.158;8.634;2024-03-07T02:02:20;4.30;99.90
21481;DHT22;10902;48.158;8.634;2024-03-07T02:05:06;4.40;99.90
21481;DHT22;10902;48.158;8.634;2024-03-07T02:07:52;4.40;99.90
21481;DHT22;10902;48.158;8.634;2024-03-07T02:10:37;4.40;99.90
21481;DHT22;10902;48.158;8.634;2024-03-07T02:13:23;4.40;99.90
21481;DHT22;10902;48.158;8.634;2024-03-07T02:16:09;4.30;99.90
21481;DHT22;10902;48.158;8.634;2024-03-07T02:18:54;4.30;99.90
21481;DHT22;10902;48.158;8.634;2024-03-07T02:21:40;4.30;99.90
21481;DHT22;10902;48.158;8.634;2024-03-07T02:24:26;4.30;99.90
21481;DHT22;10902;48.158;8.634;2024-03-07T02:27:12;4.30;99.90
21481;DHT22;10902;48.158;8.634;2024-03-07T02:29:59;4.30;99.90
21481;DHT22;10902;48.158;8.634;2024-03-07T02:32:46;4.30;99.90
21481;DHT22;10902;48.158;8.634;2024-03-07T02:35:37;4.30;99.90
21481;DHT22;10902;48.158;8.634;2024-03-07T02:38:23;4.30;99.90
21481;DHT22;10902;48.158;8.634;2024-03-07T02:41:09;4.40;99.90
21481;DHT22;10902;48.158;8.634;2024-03-07T02:43:55;4.40;99.90
21481;DHT22;10902;48.158;8.634;2024-03-07T02:46:40;4.40;99.90
21481;DHT22;10902;48.158;8.634;2024-03-07T02:49:26;4.40;99.90
21481;DHT22;10902;48.158;8.634;2024-03-07T02:52:12;4.40;99.90
21481;DHT22;10902;48.158;8.634;2024-03-07T02:54:57;4.40;99.90
21481;DHT22;10902;48.158;8.634;2024-03-07T02:57:43;4.40;99.90
21481;DHT22;10902;48.158;8.634;2024-03-07T03:00:29;4.40;99.90
21481;DHT22;10902;48.158;8.634;2024-03-07T03:03:15;4.40;99.90
21481;DHT22;10902;48.158;8.634;2024-03-07T03:06:00;4.50;99.90
21481;DHT22;10902;48.158;8.634;2024-03-07T03:08:47;4.40;99.90
21481;DHT22;10902;48.158;8.634;2024-03-07T03:11:33;4.30;99.90
21481;DHT22;10902;48.158;8.634;2024-03-07T03:14:19;4.30;99.90
21481;DHT22;10902;48.158;8.634;2024-03-07T03:17:05;4.20;99.90
21481;DHT22;10902;48.158;8.634;2024-03-07T03:19:50;4.20;99.90
21481;DHT22;10902;48.158;8.634;2024-03-07T03:22:37;4.10;99.90
21481;DHT22;10902;48.158;8.634;2024-03-07T03:25:22;4.10;99.90
21481;DHT22;10902;48.158;8.634;2024-03-07T03:28:11;4.10;99.90
21481;DHT22;10902;48.158;8.634;2024-03-07T03:30:57;4.20;99.90
21481;DHT22;10902;48.158;8.634;2024-03-07T03:33:43;4.20;99.90
21481;DHT22;10902;48.158;8.634;2024-03-07T03:36:28;4.10;99.90
21481;DHT22;10902;48.158;8.634;2024-03-07T03:39:14;4.10;99.90
21481;DHT22;10902;48.158;8.634;2024-03-07T03:42:01;4.10;99.90
21481;DHT22;10902;48.158;8.634;2024-03-07T03:44:46;4.10;99.90
21481;DHT22;10902;48.158;8.634;2024-03-07T03:47:36;4.00;99.90
21481;DHT22;10902;48.158;8.634;2024-03-07T03:50:22;4.00;99.90
21481;DHT22;10902;48.158;8.634;2024-03-07T03:53:10;3.90;99.90
21481;DHT22;10902;48.158;8.634;2024-03-07T03:55:55;3.90;99.90
21481;DHT22;10902;48.158;8.634;2024-03-07T03:58:42;3.90;99.90
21481;DHT22;10902;48.158;8.634;2024-03-07T04:01:28;3.80;99.90
21481;DHT22;10902;48.158;8.634;2024-03-07T04:04:14;3.80;99.90
21481;DHT22;10902;48.158;8.634;2024-03-07T04:06:59;3.70;99.90
21481;DHT22;10902;48.158;8.634;2024-03-07T04:09:46;3.70;99.90
21481;DHT22;10902;48.158;8.634;2024-03-07T04:12:31;3.70;99.90
21481;DHT22;10902;48.158;8.634;2024-03-07T04:15:17;3.70;99.90
21481;DHT22;10902;48.158;8.634;2024-03-07T04:18:03;3.70;99.90
21481;DHT22;10902;48.158;8.634;2024-03-07T04:20:49;3.60;99.90
21481;DHT22;10902;48.158;8.634;2024-03-07T04:23:35;3.60;99.90
21481;DHT22;10902;48.158;8.634;2024-03-07T04:26:20;3.60;99.90
21481;DHT22;10902;48.158;8.634;2024-03-07T04:29:07;3.50;99.90
21481;DHT22;10902;48.158;8.634;2024-03-07T04:31:53;3.50;99.90
21481;DHT22;10902;48.158;8.634;2024-03-07T04:34:39;3.50;99.90
21481;DHT22;10902;48.158;8.634;2024-03-07T04:37:25;3.60;99.90
21481;DHT22;10902;48.158;8.634;2024-03-07T04:40:12;3.60;99.90
21481;DHT22;10902;48.158;8.634;2024-03-07T04:43:01;3.50;99.90
21481;DHT22;10902;48.158;8.634;2024-03-07T04:45:46;3.50;99.90
21481;DHT22;10902;48.158;8.634;2024-03-07T04:48:32;3.50;99.90
21481;DHT22;10902;48.158;8.634;2024-03-07T04:51:17;3.50;99.90
21481;DHT22;10902;48.158;8.634;2024-03-07T04:54:03;3.50;99.90
21481;DHT22;10902;48.158;8.634;2024-03-07T04:56:50;3.50;99.90
21481;DHT22;10902;48.158;8.634;2024-03-07T04:59:36;3.40;99.90
21481;DHT22;10902;48.158;8.634;2024-03-07T05:02:21;3.40;99.90
21481;DHT22;10902;48.158;8.634;2024-03-07T05:05:08;3.40;99.90
21481;DHT22;10902;48.158;8.634;2024-03-07T05:07:54;3.40;99.90
21481;DHT22;10902;48.158;8.634;2024-03-07T05:10:41;3.30;99.90
21481;DHT22;10902;48.158;8.634;2024-03-07T05:13:27;3.30;99.90
21481;DHT22;10902;48.158;8.634;2024-03-07T05:16:12;3.30;99.90
21481;DHT22;10902;48.158;8.634;2024-03-07T05:18:58;3.20;99.90
21481;DHT22;10902;48.158;8.634;2024-03-07T05:21:44;3.20;99.90
21481;DHT22;10902;48.158;8.634;2024-03-07T05:24:33;3.10;99.90
21481;DHT22;10902;48.158;8.634;2024-03-07T05:27:19;3.20;99.90
21481;DHT22;10902;48.158;8.634;2024-03-07T05:30:05;3.10;99.90
21481;DHT22;10902;48.158;8.634;2024-03-07T05:32:51;3.00;99.90
21481;DHT22;10902;48.158;8.634;2024-03-07T05:35:37;3.00;99.90
21481;DHT22;10902;48.158;8.634;2024-03-07T05:38:22;3.00;99.90
21481;DHT22;10902;48.158;8.634;2024-03-07T05:41:08;2.90;99.90
21481;DHT22;10902;48.158;8.634;2024-03-07T05:43:54;2.90;99.90
21481;DHT22;10902;48.158;8.634;2024-03-07T05:46:43;2.90;99.90
21481;DHT22;10902;48.158;8.634;2024-03-07T05:49:32;2.90;99.90
21481;DHT22;10902;48.158;8.634;2024-03-07T05:52:17;2.90;99.90
21481;DHT22;10902;48.158;8.634;2024-03-07T05:55:04;2.70;99.90
21481;DHT22;10902;48.158;8.634;2024-03-07T05:57:52;2.70;99.90
21481;DHT22;10902;48.158;8.634;2024-03-07T06:00:37;2.80;99.90
21481;DHT22;10902;48.158;8.634;2024-03-07T06:03:23;2.80;99.90
21481;DHT22;10902;48.158;8.634;2024-03-07T06:06:11;2.80;99.90
21481;DHT22;10902;48.158;8.634;2024-03-07T06:09:08;2.80;99.90
21481;DHT22;10902;48.158;8.634;2024-03-07T06:11:53;2.80;99.90
21481;DHT22;10902;48.158;8.634;2024-03-07T06:14:39;2.80;99.90
21481;DHT22;10902;48.158;8.634;2024-03-07T06:17:24;2.70;99.90
21481;DHT22;10902;48.158;8.634;2024-03-07T06:20:10;2.70;99.90
21481;DHT22;10902;48.158;8.634;2024-03-07T06:23:08;2.80;99.90
21481;DHT22;10902;48.158;8.634;2024-03-07T06:25:54;2.80;99.90
21481;DHT22;10902;48.158;8.634;2024-03-07T06:28:41;2.80;99.90
21481;DHT22;10902;48.158;8.634;2024-03-07T06:31:26;2.70;99.90
21481;DHT22;10902;48.158;8.634;2024-03-07T06:34:12;2.70;99.90
21481;DHT22;10902;48.158;8.634;2024-03-07T06:36:58;2.80;99.90
21481;DHT22;10902;48.158;8.634;2024-03-07T06:39:44;2.80;99.90
21481;DHT22;10902;48.158;8.634;2024-03-07T06:42:29;2.70;99.90
21481;DHT22;10902;48.158;8.634;2024-03-07T06:45:15;2.70;99.90
21481;DHT22;10902;48.158;8.634;2024-03-07T06:48:01;2.60;99.90
21481;DHT22;10902;48.158;8.634;2024-03-07T06:50:47;2.40;99.90
21481;DHT22;10902;48.158;8.634;2024-03-07T06:53:33;2.40;99.90
21481;DHT22;10902;48.158;8.634;2024-03-07T06:56:18;2.40;99.90
21481;DHT22;10902;48.158;8.634;2024-03-07T06:59:04;2.50;99.90
21481;DHT22;10902;48.158;8.634;2024-03-07T07:01:49;2.60;99.90
21481;DHT22;10902;48.158;8.634;2024-03-07T07:04:36;2.70;99.90
21481;DHT22;10902;48.158;8.634;2024-03-07T07:07:28;2.70;99.90
21481;DHT22;10902;48.158;8.634;2024-03-07T07:10:14;2.60;99.90
21481;DHT22;10902;48.158;8.634;2024-03-07T07:13:09;2.60;99.90
21481;DHT22;10902;48.158;8.634;2024-03-07T07:15:55;2.70;99.90
21481;DHT22;10902;48.158;8.634;2024-03-07T07:18:41;2.60;99.90
21481;DHT22;10902;48.158;8.634;2024-03-07T07:21:28;2.80;99.90
21481;DHT22;10902;48.158;8.634;2024-03-07T07:24:14;2.90;99.90
21481;DHT22;10902;48.158;8.634;2024-03-07T07:26:59;3.00;99.90
21481;DHT22;10902;48.158;8.634;2024-03-07T07:29:46;3.00;99.90
21481;DHT22;10902;48.158;8.634;2024-03-07T07:32:32;3.10;99.90
21481;DHT22;10902;48.158;8.634;2024-03-07T07:35:18;3.10;99.90
21481;DHT22;10902;48.158;8.634;2024-03-07T07:38:03;3.10;99.90
21481;DHT22;10902;48.158;8.634;2024-03-07T07:40:49;3.20;99.90
21481;DHT22;10902;48.158;8.634;2024-03-07T07:43:35;3.30;99.90
21481;DHT22;10902;48.158;8.634;2024-03-07T07:46:20;3.40;99.90
21481;DHT22;10902;48.158;8.634;2024-03-07T07:49:06;3.30;99.90
21481;DHT22;10902;48.158;8.634;2024-03-07T07:51:52;3.30;99.90
21481;DHT22;10902;48.158;8.634;2024-03-07T07:54:44;3.40;99.90
21481;DHT22;10902;48.158;8.634;2024-03-07T07:57:30;3.50;99.90
21481;DHT22;10902;48.158;8.634;2024-03-07T08:00:17;3.60;99.90
21481;DHT22;10902;48.158;8.634;2024-03-07T08:03:09;3.60;99.90
21481;DHT22;10902;48.158;8.634;2024-03-07T08:05:55;3.40;99.90
21481;DHT22;10902;48.158;8.634;2024-03-07T08:08:41;3.40;99.90
21481;DHT22;10902;48.158;8.634;2024-03-07T08:11:26;3.40;99.90
21481;DHT22;10902;48.158;8.634;2024-03-07T08:14:12;3.50;99.90
21481;DHT22;10902;48.158;8.634;2024-03-07T08:16:58;3.50;99.90
21481;DHT22;10902;48.158;8.634;2024-03-07T08:19:43;3.60;99.90
21481;DHT22;10902;48.158;8.634;2024-03-07T08:22:29;3.50;99.90
21481;DHT22;10902;48.158;8.634;2024-03-07T08:25:15;3.50;99.90
21481;DHT22;10902;48.158;8.634;2024-03-07T08:28:00;3.50;99.90
21481;DHT22;10902;48.158;8.634;2024-03-07T08:30:46;3.50;99.90
21481;DHT22;10902;48.158;8.634;2024-03-07T08:33:32;3.50;99.90
21481;DHT22;10902;48.158;8.634;2024-03-07T08:36:18;3.70;99.90
21481;DHT22;10902;48.158;8.634;2024-03-07T08:39:04;3.70;99.90
21481;DHT22;10902;48.158;8.634;2024-03-07T08:41:49;3.80;99.90
21481;DHT22;10902;48.158;8.634;2024-03-07T08:44:35;3.80;99.90
21481;DHT22;10902;48.158;8.634;2024-03-07T08:47:20;3.80;99.90
21481;DHT22;10902;48.158;8.634;2024-03-07T08:50:06;3.70;99.90
21481;DHT22;10902;48.158;8.634;2024-03-07T08:52:53;3.80;99.90
21481;DHT22;10902;48.158;8.634;2024-03-07T08:55:39;3.90;99.90
21481;DHT22;10902;48.158;8.634;2024-03-07T08:58:25;4.00;99.90
21481;DHT22;10902;48.158;8.634;2024-03-07T09:01:10;4.00;99.90
21481;DHT22;10902;48.158;8.634;2024-03-07T09:03:56;4.20;99.90
21481;DHT22;10902;48.158;8.634;2024-03-07T09:06:44;4.20;99.90
21481;DHT22;10902;48.158;8.634;2024-03-07T09:09:32;4.20;99.90
21481;DHT22;10902;48.158;8.634;2024-03-07T09:12:18;4.20;99.90
21481;DHT22;10902;48.158;8.634;2024-03-07T09:15:06;4.20;99.90
21481;DHT22;10902;48.158;8.634;2024-03-07T09:17:52;4.20;99.90
21481;DHT22;10902;48.158;8.634;2024-03-07T09:20:38;4.10;99.90
21481;DHT22;10902;48.158;8.634;2024-03-07T09:23:23;4.00;99.90
21481;DHT22;10902;48.158;8.634;2024-03-07T09:26:09;3.90;99.90
21481;DHT22;10902;48.158;8.634;2024-03-07T09:28:54;4.00;99.90
21481;DHT22;10902;48.158;8.634;2024-03-07T09:31:41;4.00;99.90
21481;DHT22;10902;48.158;8.634;2024-03-07T09:34:27;4.00;99.90
21481;DHT22;10902;48.158;8.634;2024-03-07T09:37:12;3.90;99.90
21481;DHT22;10902;48.158;8.634;2024-03-07T09:39:58;3.80;99.90
21481;DHT22;10902;48.158;8.634;2024-03-07T09:42:49;3.80;99.90
21481;DHT22;10902;48.158;8.634;2024-03-07T09:45:37;3.80;99.90
21481;DHT22;10902;48.158;8.634;2024-03-07T09:48:23;3.80;99.90
21481;DHT22;10902;48.158;8.634;2024-03-07T09:51:13;3.90;99.90
21481;DHT22;10902;48.158;8.634;2024-03-07T09:54:02;4.00;99.90
21481;DHT22;10902;48.158;8.634;2024-03-07T09:56:48;3.80;99.90
21481;DHT22;10902;48.158;8.634;2024-03-07T09:59:35;3.70;99.90
21481;DHT22;10902;48.158;8.634;2024-03-07T10:02:26;3.70;99.90
21481;DHT22;10902;48.158;8.634;2024-03-07T10:05:14;3.70;99.90
21481;DHT22;10902;48.158;8.634;2024-03-07T10:08:00;3.60;99.90
21481;DHT22;10902;48.158;8.634;2024-03-07T10:10:47;3.60;99.90
21481;DHT22;10902;48.158;8.634;2024-03-07T10:13:33;3.50;99.90
21481;DHT22;10902;48.158;8.634;2024-03-07T10:16:18;3.60;99.90
21481;DHT22;10902;48.158;8.634;2024-03-07T10:19:04;3.80;99.90
21481;DHT22;10902;48.158;8.634;2024-03-07T10:21:50;4.00;99.90
21481;DHT22;10902;48.158;8.634;2024-03-07T10:24:37;4.10;99.90
21481;DHT22;10902;48.158;8.634;2024-03-07T10:27:23;3.90;99.90
21481;DHT22;10902;48.158;8.634;2024-03-07T10:30:09;3.80;99.90
21481;DHT22;10902;48.158;8.634;2024-03-07T10:32:57;4.00;99.90
21481;DHT22;10902;48.158;8.634;2024-03-07T10:35:47;4.10;99.90
21481;DHT22;10902;48.158;8.634;2024-03-07T10:38:34;4.30;99.90
21481;DHT22;10902;48.158;8.634;2024-03-07T10:41:23;4.70;99.90
21481;DHT22;10902;48.158;8.634;2024-03-07T10:47:06;4.90;99.90
21481;DHT22;10902;48.158;8.634;2024-03-07T10:50:16;5.00;99.90
21481;DHT22;10902;48.158;8.634;2024-03-07T10:59:26;5.60;99.90
21481;DHT22;10902;48.158;8.634;2024-03-07T11:02:37;5.70;99.90
21481;DHT22;10902;48.158;8.634;2024-03-07T11:05:28;5.80;99.90
21481;DHT22;10902;48.158;8.634;2024-03-07T11:08:17;6.00;99.90
21481;DHT22;10902;48.158;8.634;2024-03-07T11:11:04;6.30;99.90
21481;DHT22;10902;48.158;8.634;2024-03-07T11:13:50;6.60;99.90
21481;DHT22;10902;48.158;8.634;2024-03-07T11:16:37;6.70;99.90
21481;DHT22;10902;48.158;8.634;2024-03-07T11:19:27;7.00;99.90
21481;DHT22;10902;48.158;8.634;2024-03-07T11:22:30;6.70;99.90
21481;DHT22;10902;48.158;8.634;2024-03-07T11:25:19;6.40;99.90
21481;DHT22;10902;48.158;8.634;2024-03-07T11:28:06;6.60;99.90
21481;DHT22;10902;48.158;8.634;2024-03-07T11:30:52;6.90;99.90
21481;DHT22;10902;48.158;8.634;2024-03-07T11:33:38;7.10;99.90
21481;DHT22;10902;48.158;8.634;2024-03-07T11:36:43;7.60;99.90
21481;DHT22;10902;48.158;8.634;2024-03-07T11:39:41;7.90;99.90
21481;DHT22;10902;48.158;8.634;2024-03-07T11:42:29;7.90;99.90
21481;DHT22;10902;48.158;8.634;2024-03-07T11:45:19;7.70;99.90
21481;DHT22;10902;48.158;8.634;2024-03-07T11:48:11;7.10;99.90
21481;DHT22;10902;48.158;8.634;2024-03-07T11:50:56;6.60;99.90
21481;DHT22;10902;48.158;8.634;2024-03-07T11:53:43;7.00;99.90
21481;DHT22;10902;48.158;8.634;2024-03-07T11:56:29;7.40;99.90
21481;DHT22;10902;48.158;8.634;2024-03-07T11:59:15;7.80;99.90
21481;DHT22;10902;48.158;8.634;2024-03-07T12:02:01;8.30;99.90
21481;DHT22;10902;48.158;8.634;2024-03-07T12:04:47;8.50;99.90
21481;DHT22;10902;48.158;8.634;2024-03-07T12:07:34;9.00;99.90
21481;DHT22;10902;48.158;8.634;2024-03-07T12:10:20;9.30;99.90
21481;DHT22;10902;48.158;8.634;2024-03-07T12:13:13;9.10;99.90
21481;DHT22;10902;48.158;8.634;2024-03-07T12:16:04;9.20;99.90
21481;DHT22;10902;48.158;8.634;2024-03-07T12:18:53;9.30;99.90
21481;DHT22;10902;48.158;8.634;2024-03-07T12:21:40;8.30;99.90
21481;DHT22;10902;48.158;8.634;2024-03-07T12:24:25;7.60;99.90
21481;DHT22;10902;48.158;8.634;2024-03-07T12:27:12;7.30;99.90
21481;DHT22;10902;48.158;8.634;2024-03-07T12:29:58;7.40;99.90
21481;DHT22;10902;48.158;8.634;2024-03-07T12:32:50;7.70;99.90
21481;DHT22;10902;48.158;8.634;2024-03-07T12:35:37;8.80;99.90
21481;DHT22;10902;48.158;8.634;2024-03-07T12:38:22;9.20;99.90
21481;DHT22;10902;48.158;8.634;2024-03-07T12:41:10;9.60;99.90
21481;DHT22;10902;48.158;8.634;2024-03-07T12:43:58;9.60;99.90
21481;DHT22;10902;48.158;8.634;2024-03-07T12:46:48;8.80;99.90
21481;DHT22;10902;48.158;8.634;2024-03-07T12:49:34;7.90;99.90
21481;DHT22;10902;48.158;8.634;2024-03-07T12:52:19;7.20;99.90
21481;DHT22;10902;48.158;8.634;2024-03-07T12:55:05;7.20;99.90
21481;DHT22;10902;48.158;8.634;2024-03-07T12:57:51;8.00;99.90
21481;DHT22;10902;48.158;8.634;2024-03-07T13:00:38;8.00;99.90
21481;DHT22;10902;48.158;8.634;2024-03-07T13:03:24;8.30;99.90
21481;DHT22;10902;48.158;8.634;2024-03-07T13:06:15;8.30;99.90
21481;DHT22;10902;48.158;8.634;2024-03-07T13:09:04;8.60;99.90
21481;DHT22;10902;48.158;8.634;2024-03-07T13:11:55;8.90;99.90
21481;DHT22;10902;48.158;8.634;2024-03-07T13:14:41;9.00;99.90
21481;DHT22;10902;48.158;8.634;2024-03-07T13:17:29;8.60;99.90
21481;DHT22;10902;48.158;8.634;2024-03-07T13:20:15;8.00;99.90
21481;DHT22;10902;48.158;8.634;2024-03-07T13:23:01;7.90;99.90
21481;DHT22;10902;48.158;8.634;2024-03-07T13:25:46;8.40;99.90
21481;DHT22;10902;48.158;8.634;2024-03-07T13:28:34;8.80;99.90
21481;DHT22;10902;48.158;8.634;2024-03-07T13:31:20;8.10;99.90
21481;DHT22;10902;48.158;8.634;2024-03-07T13:34:05;8.00;99.90
21481;DHT22;10902;48.158;8.634;2024-03-07T13:36:55;7.80;99.90
21481;DHT22;10902;48.158;8.634;2024-03-07T13:39:43;7.80;99.90
21481;DHT22;10902;48.158;8.634;2024-03-07T13:42:29;7.80;99.90
21481;DHT22;10902;48.158;8.634;2024-03-07T13:45:14;7.40;99.90
21481;DHT22;10902;48.158;8.634;2024-03-07T13:48:00;6.90;99.90
21481;DHT22;10902;48.158;8.634;2024-03-07T13:50:46;6.40;99.90
21481;DHT22;10902;48.158;8.634;2024-03-07T13:53:34;6.50;99.90
21481;DHT22;10902;48.158;8.634;2024-03-07T13:57:03;6.70;99.90
21481;DHT22;10902;48.158;8.634;2024-03-07T14:00:05;6.20;99.90
21481;DHT22;10902;48.158;8.634;2024-03-07T14:06:33;6.40;99.90
21481;DHT22;10902;48.158;8.634;2024-03-07T14:19:35;6.60;99.90
21481;DHT22;10902;48.158;8.634;2024-03-07T14:29:41;6.70;99.90
21481;DHT22;10902;48.158;8.634;2024-03-07T14:32:28;6.90;99.90
21481;DHT22;10902;48.158;8.634;2024-03-07T14:35:32;6.70;99.90
21481;DHT22;10902;48.158;8.634;2024-03-07T14:38:28;6.80;99.90
21481;DHT22;10902;48.158;8.634;2024-03-07T14:41:15;6.70;99.90
21481;DHT22;10902;48.158;8.634;2024-03-07T14:44:02;6.80;99.90
21481;DHT22;10902;48.158;8.634;2024-03-07T14:46:53;6.80;99.90
21481;DHT22;10902;48.158;8.634;2024-03-07T14:49:40;6.90;99.90
21481;DHT22;10902;48.158;8.634;2024-03-07T14:52:27;6.90;99.90
21481;DHT22;10902;48.158;8.634;2024-03-07T14:55:13;6.80;99.90
21481;DHT22;10902;48.158;8.634;2024-03-07T14:58:04;6.50;99.90
21481;DHT22;10902;48.158;8.634;2024-03-07T15:00:51;6.10;99.90
21481;DHT22;10902;48.158;8.634;2024-03-07T15:03:38;5.80;99.90
21481;DHT22;10902;48.158;8.634;2024-03-07T15:06:24;5.80;99.90
21481;DHT22;10902;48.158;8.634;2024-03-07T15:09:10;5.80;99.90
21481;DHT22;10902;48.158;8.634;2024-03-07T15:11:56;5.80;99.90
21481;DHT22;10902;48.158;8.634;2024-03-07T15:14:42;5.80;99.90
21481;DHT22;10902;48.158;8.634;2024-03-07T15:17:28;5.50;99.90
21481;DHT22;10902;48.158;8.634;2024-03-07T15:20:14;5.40;99.90
21481;DHT22;10902;48.158;8.634;2024-03-07T15:23:08;5.30;99.90
21481;DHT22;10902;48.158;8.634;2024-03-07T15:25:54;5.30;99.90
21481;DHT22;10902;48.158;8.634;2024-03-07T15:28:40;5.30;99.90
21481;DHT22;10902;48.158;8.634;2024-03-07T15:31:25;5.20;99.90
21481;DHT22;10902;48.158;8.634;2024-03-07T15:34:11;4.90;99.90
21481;DHT22;10902;48.158;8.634;2024-03-07T15:37:00;4.80;99.90
21481;DHT22;10902;48.158;8.634;2024-03-07T15:39:47;4.80;99.90
21481;DHT22;10902;48.158;8.634;2024-03-07T15:42:33;4.60;99.90
21481;DHT22;10902;48.158;8.634;2024-03-07T15:45:20;4.40;99.90
21481;DHT22;10902;48.158;8.634;2024-03-07T15:48:07;4.20;99.90
21481;DHT22;10902;48.158;8.634;2024-03-07T15:50:55;4.20;99.90
21481;DHT22;10902;48.158;8.634;2024-03-07T15:53:42;4.10;99.90
21481;DHT22;10902;48.158;8.634;2024-03-07T15:56:28;3.90;99.90
21481;DHT22;10902;48.158;8.634;2024-03-07T15:59:14;3.90;99.90
21481;DHT22;10902;48.158;8.634;2024-03-07T16:02:00;3.90;99.90
21481;DHT22;10902;48.158;8.634;2024-03-07T16:04:45;3.90;99.90
21481;DHT22;10902;48.158;8.634;2024-03-07T16:07:31;3.90;99.90
21481;DHT22;10902;48.158;8.634;2024-03-07T16:10:18;3.90;99.90
21481;DHT22;10902;48.158;8.634;2024-03-07T16:13:05;3.90;99.90
21481;DHT22;10902;48.158;8.634;2024-03-07T16:15:54;3.90;99.90
21481;DHT22;10902;48.158;8.634;2024-03-07T16:18:40;3.90;99.90
21481;DHT22;10902;48.158;8.634;2024-03-07T16:21:27;4.00;99.90
21481;DHT22;10902;48.158;8.634;2024-03-07T16:24:12;4.10;99.90
21481;DHT22;10902;48.158;8.634;2024-03-07T16:26:58;4.10;99.90
21481;DHT22;10902;48.158;8.634;2024-03-07T16:29:44;4.10;99.90
21481;DHT22;10902;48.158;8.634;2024-03-07T16:32:34;4.20;99.90
21481;DHT22;10902;48.158;8.634;2024-03-07T16:35:20;4.20;99.90
21481;DHT22;10902;48.158;8.634;2024-03-07T16:38:06;4.20;99.90
21481;DHT22;10902;48.158;8.634;2024-03-07T16:40:54;4.20;99.90
21481;DHT22;10902;48.158;8.634;2024-03-07T16:43:40;4.10;99.90
21481;DHT22;10902;48.158;8.634;2024-03-07T16:46:25;4.20;99.90
21481;DHT22;10902;48.158;8.634;2024-03-07T16:49:11;4.10;99.90
21481;DHT22;10902;48.158;8.634;2024-03-07T16:51:59;4.00;99.90
21481;DHT22;10902;48.158;8.634;2024-03-07T16:54:45;4.00;99.90
21481;DHT22;10902;48.158;8.634;2024-03-07T16:57:30;4.00;99.90
21481;DHT22;10902;48.158;8.634;2024-03-07T17:00:21;3.90;99.90
21481;DHT22;10902;48.158;8.634;2024-03-07T17:03:13;3.90;99.90
21481;DHT22;10902;48.158;8.634;2024-03-07T17:06:00;4.00;99.90
21481;DHT22;10902;48.158;8.634;2024-03-07T17:08:46;4.20;99.90
21481;DHT22;10902;48.158;8.634;2024-03-07T17:11:33;4.20;99.90
21481;DHT22;10902;48.158;8.634;2024-03-07T17:14:19;4.10;99.90
21481;DHT22;10902;48.158;8.634;2024-03-07T17:17:04;4.10;99.90
21481;DHT22;10902;48.158;8.634;2024-03-07T17:19:52;4.00;99.90
21481;DHT22;10902;48.158;8.634;2024-03-07T17:22:37;3.90;99.90
21481;DHT22;10902;48.158;8.634;2024-03-07T17:25:25;3.90;99.90
21481;DHT22;10902;48.158;8.634;2024-03-07T17:28:14;3.90;99.90
21481;DHT22;10902;48.158;8.634;2024-03-07T17:31:01;3.90;99.90
21481;DHT22;10902;48.158;8.634;2024-03-07T17:33:48;3.90;99.90
21481;DHT22;10902;48.158;8.634;2024-03-07T17:36:35;3.80;99.90
21481;DHT22;10902;48.158;8.634;2024-03-07T17:39:20;3.80;99.90
21481;DHT22;10902;48.158;8.634;2024-03-07T17:42:08;3.80;99.90
21481;DHT22;10902;48.158;8.634;2024-03-07T17:44:56;3.70;99.90
21481;DHT22;10902;48.158;8.634;2024-03-07T17:47:42;3.60;99.90
21481;DHT22;10902;48.158;8.634;2024-03-07T17:50:30;3.70;99.90
21481;DHT22;10902;48.158;8.634;2024-03-07T17:53:16;3.70;99.90
21481;DHT22;10902;48.158;8.634;2024-03-07T17:56:02;3.70;99.90
21481;DHT22;10902;48.158;8.634;2024-03-07T17:58:51;3.70;99.90
21481;DHT22;10902;48.158;8.634;2024-03-07T18:01:36;3.60;99.90
21481;DHT22;10902;48.158;8.634;2024-03-07T18:04:22;3.60;99.90
21481;DHT22;10902;48.158;8.634;2024-03-07T18:07:09;3.60;99.90
21481;DHT22;10902;48.158;8.634;2024-03-07T18:09:55;3.60;99.90
21481;DHT22;10902;48.158;8.634;2024-03-07T18:12:40;3.60;99.90
21481;DHT22;10902;48.158;8.634;2024-03-07T18:15:26;3.60;99.90
21481;DHT22;10902;48.158;8.634;2024-03-07T18:18:12;3.70;99.90
21481;DHT22;10902;48.158;8.634;2024-03-07T18:21:01;3.70;99.90
21481;DHT22;10902;48.158;8.634;2024-03-07T18:23:46;3.70;99.90
21481;DHT22;10902;48.158;8.634;2024-03-07T18:26:32;3.70;99.90